Richardson's Hourly Summary for Monday, May 14, 2018
Hour Temp
(f)
RH
(%)
Solar Rad.
(MJ/m2)
Rainfall
(in)
Wind
(mph)
5/14/2018 12:00 AM 78 63 0 0 4.04
5/14/2018 1:00 AM 77 68 0 0 3.77
5/14/2018 2:00 AM 76 70 0 0 2.6
5/14/2018 3:00 AM 75 73 0 0 2.34
5/14/2018 4:00 AM 74 77 0 0 2.1
5/14/2018 5:00 AM 73 80 0 0 3.57
5/14/2018 6:00 AM 73 81 0 0 4.36
5/14/2018 7:00 AM 73 83 0.02 0 5.66
5/14/2018 8:00 AM 73 80 0.35 0 6.04
5/14/2018 9:00 AM 75 73 0.94 0 7.19
5/14/2018 10:00 AM 76 70 1.02 0 8.38
5/14/2018 11:00 AM 79 62 2 0 8.67
5/14/2018 12:00 PM 81 56 2.38 0 8.65
5/14/2018 1:00 PM 83 50 2.53 0 8.26
5/14/2018 2:00 PM 85 48 3.11 0 8.47
5/14/2018 3:00 PM 87 45 3.07 0 8.35
5/14/2018 4:00 PM 87 43 2.29 0 8.01
5/14/2018 5:00 PM 86 47 1.91 0 7.25
5/14/2018 6:00 PM 86 48 1.26 0 7.28
5/14/2018 7:00 PM 85 49 0.71 0 7.4
5/14/2018 8:00 PM 83 51 0.12 0 6.38
5/14/2018 9:00 PM 81 60 0.01 0 5.84
5/14/2018 10:00 PM 80 63 0 0 5.25
5/14/2018 11:00 PM 79 64 0 0 5.81
Data Summary 79 62 21.72 0.00 6.07